createdAt,value
2023-01-06T00:02:23.875Z,86.65
2023-01-06T00:04:50.806Z,86.70
2023-01-06T00:07:17.553Z,86.95
2023-01-06T00:09:44.417Z,86.91
2023-01-06T00:12:11.198Z,87.08
2023-01-06T00:14:38.117Z,87.16
2023-01-06T00:17:04.909Z,87.14
2023-01-06T00:19:31.881Z,86.98
2023-01-06T00:21:58.575Z,87.39
2023-01-06T00:24:25.394Z,87.13
2023-01-06T00:26:52.169Z,87.25
2023-01-06T00:29:19.834Z,87.44
2023-01-06T00:31:46.580Z,87.37
2023-01-06T00:34:13.472Z,87.23
2023-01-06T00:36:40.805Z,87.40
2023-01-06T00:39:11.552Z,87.39
2023-01-06T00:41:57.010Z,87.23
2023-01-06T00:44:23.921Z,87.35
2023-01-06T00:46:51.081Z,87.33
2023-01-06T00:49:17.998Z,87.58
2023-01-06T00:51:44.756Z,87.73
2023-01-06T00:54:12.538Z,87.63
2023-01-06T00:56:40.347Z,87.58
2023-01-06T00:59:08.161Z,87.90
2023-01-06T01:01:35.744Z,87.91
2023-01-06T01:04:02.866Z,88.35
2023-01-06T01:06:29.781Z,88.08
2023-01-06T01:08:57.475Z,88.24
2023-01-06T01:11:43.143Z,88.15
2023-01-06T01:14:10.698Z,88.17
2023-01-06T01:16:37.661Z,88.36
2023-01-06T01:19:04.591Z,88.15
2023-01-06T01:21:31.432Z,88.12
2023-01-06T01:23:58.307Z,88.09
2023-01-06T01:26:25.341Z,87.97
2023-01-06T01:28:52.342Z,88.02
2023-01-06T01:31:20.652Z,87.94
2023-01-06T01:33:47.559Z,88.23
2023-01-06T01:36:18.016Z,88.13
2023-01-06T01:38:45.064Z,88.06
2023-01-06T01:41:17.394Z,88.15
2023-01-06T01:43:45.359Z,88.34
2023-01-06T01:46:13.396Z,88.20
2023-01-06T01:48:40.721Z,88.50
2023-01-06T01:51:09.438Z,88.70
2023-01-06T01:53:38.588Z,88.71
2023-01-06T01:56:07.081Z,88.76
2023-01-06T01:58:38.759Z,88.62
2023-01-06T02:01:07.178Z,88.58
2023-01-06T02:03:36.833Z,88.91
2023-01-06T02:06:07.539Z,88.55
2023-01-06T02:08:37.234Z,88.63
2023-01-06T02:11:05.451Z,88.85
2023-01-06T02:13:33.391Z,88.99
2023-01-06T02:16:05.640Z,88.86
2023-01-06T02:19:08.032Z,89.13
2023-01-06T02:21:53.118Z,89.03
2023-01-06T02:24:38.368Z,89.07
2023-01-06T02:27:16.594Z,89.21
2023-01-06T02:30:02.361Z,89.41
2023-01-06T02:32:38.361Z,89.27
2023-01-06T02:35:12.831Z,89.22
2023-01-06T02:37:40.910Z,89.21
2023-01-06T02:40:26.221Z,89.44
2023-01-06T02:42:59.256Z,89.44
2023-01-06T02:45:49.302Z,89.52
2023-01-06T02:48:28.512Z,89.58
2023-01-06T02:51:02.460Z,89.50
2023-01-06T02:53:29.252Z,89.53
2023-01-06T02:55:57.314Z,89.51
2023-01-06T02:58:42.926Z,89.68
2023-01-06T03:01:13.680Z,89.45
2023-01-06T03:03:42.987Z,89.47
2023-01-06T03:06:12.761Z,89.67
2023-01-06T03:08:40.060Z,89.49
2023-01-06T03:11:07.423Z,89.58
2023-01-06T03:13:38.912Z,89.56
2023-01-06T03:16:06.449Z,89.76
2023-01-06T03:18:34.350Z,89.67
2023-01-06T03:21:05.200Z,89.63
2023-01-06T03:23:33.192Z,89.81
2023-01-06T03:26:00.002Z,89.59
2023-01-06T03:28:27.193Z,89.50
2023-01-06T03:31:12.225Z,89.56
2023-01-06T03:33:45.319Z,89.65
2023-01-06T03:36:39.480Z,89.75
2023-01-06T03:39:18.387Z,89.68
2023-01-06T03:42:34.840Z,89.80
2023-01-06T03:45:09.051Z,89.77
2023-01-06T03:47:52.466Z,89.48
2023-01-06T03:50:23.365Z,89.75
2023-01-06T03:53:14.853Z,89.69
2023-01-06T03:55:46.174Z,89.55
2023-01-06T03:58:14.541Z,89.53
2023-01-06T04:00:41.736Z,89.65
2023-01-06T04:03:11.663Z,89.77
2023-01-06T04:05:38.685Z,89.64
2023-01-06T04:08:05.621Z,89.74
2023-01-06T04:10:32.391Z,89.86
2023-01-06T04:12:59.647Z,89.68
2023-01-06T04:15:30.776Z,89.70
2023-01-06T04:17:59.037Z,89.89
2023-01-06T04:20:28.441Z,89.93
2023-01-06T04:23:01.435Z,89.95
2023-01-06T04:25:33.680Z,89.93
2023-01-06T04:28:08.759Z,90.30
2023-01-06T04:30:35.649Z,90.22
2023-01-06T04:33:03.083Z,90.23
2023-01-06T04:35:29.832Z,90.06
2023-01-06T04:37:57.615Z,90.23
2023-01-06T04:40:24.451Z,90.02
2023-01-06T04:43:06.440Z,90.08
2023-01-06T04:45:34.408Z,90.00
2023-01-06T04:48:01.202Z,90.07
2023-01-06T04:50:28.071Z,90.17
2023-01-06T04:52:54.789Z,90.28
2023-01-06T04:55:21.634Z,90.11
2023-01-06T04:57:48.484Z,90.16
2023-01-06T05:00:15.790Z,90.18
2023-01-06T05:02:42.742Z,90.35
2023-01-06T05:05:10.019Z,90.54
2023-01-06T05:07:36.721Z,90.50
2023-01-06T05:10:04.112Z,90.60
2023-01-06T05:12:31.442Z,90.40
2023-01-06T05:14:58.277Z,90.56
2023-01-06T05:17:25.198Z,90.83
2023-01-06T05:19:52.018Z,90.67
2023-01-06T05:22:18.765Z,91.04
2023-01-06T05:24:45.573Z,90.97
2023-01-06T05:27:12.551Z,91.07
2023-01-06T05:29:39.505Z,91.04
2023-01-06T05:32:06.244Z,91.10
2023-01-06T05:34:33.031Z,91.06
2023-01-06T05:36:59.799Z,91.21
2023-01-06T05:39:26.613Z,91.11
2023-01-06T05:41:53.320Z,91.08
2023-01-06T05:44:20.852Z,91.10
2023-01-06T05:46:47.792Z,91.20
2023-01-06T05:49:14.671Z,91.26
2023-01-06T05:51:41.469Z,91.21
2023-01-06T05:54:08.841Z,91.25
2023-01-06T05:56:35.921Z,91.38
2023-01-06T05:59:03.073Z,91.51
2023-01-06T06:01:31.568Z,91.53
2023-01-06T06:03:58.889Z,91.38
2023-01-06T06:06:26.992Z,91.53
2023-01-06T06:08:53.802Z,91.60
2023-01-06T06:11:20.934Z,91.49
2023-01-06T06:13:48.767Z,91.68
2023-01-06T06:16:16.476Z,91.40
2023-01-06T06:18:44.108Z,91.60
2023-01-06T06:21:14.961Z,91.52
2023-01-06T06:23:42.284Z,91.60
2023-01-06T06:26:09.771Z,91.52
2023-01-06T06:28:37.156Z,91.43
2023-01-06T06:31:30.054Z,91.29
2023-01-06T06:33:58.389Z,91.44
2023-01-06T06:36:25.266Z,91.43
2023-01-06T06:38:52.594Z,91.67
2023-01-06T06:41:20.020Z,91.64
2023-01-06T06:43:48.644Z,91.65
2023-01-06T06:46:15.468Z,91.67
2023-01-06T06:48:42.325Z,91.83
2023-01-06T06:51:10.544Z,91.77
2023-01-06T06:53:38.190Z,91.56
2023-01-06T06:56:05.522Z,91.58
2023-01-06T06:58:32.715Z,91.72
2023-01-06T07:00:59.545Z,91.82
2023-01-06T07:03:26.513Z,91.97
2023-01-06T07:05:53.729Z,91.74
2023-01-06T07:08:20.696Z,91.95
2023-01-06T07:10:47.472Z,91.84
2023-01-06T07:13:14.294Z,91.93
2023-01-06T07:15:41.291Z,91.87
2023-01-06T07:18:08.275Z,91.90
2023-01-06T07:20:36.083Z,91.89
2023-01-06T07:23:03.454Z,91.95
2023-01-06T07:25:30.463Z,91.78
2023-01-06T07:27:59.813Z,91.81
2023-01-06T07:30:27.565Z,91.89
2023-01-06T07:32:54.380Z,91.78
2023-01-06T07:35:21.148Z,91.76
2023-01-06T07:37:48.143Z,91.76
2023-01-06T07:40:15.075Z,91.64
2023-01-06T07:42:41.931Z,91.66
2023-01-06T07:45:09.236Z,91.73
2023-01-06T07:47:36.553Z,91.51
2023-01-06T07:50:04.415Z,91.50
2023-01-06T07:52:31.805Z,91.72
2023-01-06T07:54:59.712Z,91.47
2023-01-06T07:57:27.379Z,91.39
2023-01-06T07:59:54.344Z,91.12
2023-01-06T08:02:21.511Z,91.29
2023-01-06T08:04:48.801Z,91.00
2023-01-06T08:07:16.512Z,91.05
2023-01-06T08:09:44.019Z,91.14
2023-01-06T08:12:10.904Z,91.19
2023-01-06T08:14:38.101Z,91.08
2023-01-06T08:17:07.200Z,91.11
2023-01-06T08:19:34.258Z,91.05
2023-01-06T08:22:01.144Z,90.79
2023-01-06T08:24:31.830Z,90.68
2023-01-06T08:26:59.575Z,90.92
2023-01-06T08:29:26.374Z,90.62
2023-01-06T08:31:59.368Z,90.79
2023-01-06T08:34:32.544Z,90.35
2023-01-06T08:36:59.393Z,90.41
2023-01-06T08:39:26.238Z,90.34
2023-01-06T08:41:54.699Z,90.57
2023-01-06T08:44:24.204Z,90.32
2023-01-06T08:46:50.951Z,90.33
2023-01-06T08:49:17.829Z,90.32
2023-01-06T08:51:44.673Z,90.44
2023-01-06T08:54:11.676Z,90.19
2023-01-06T08:56:39.279Z,90.13
2023-01-06T08:59:06.361Z,90.24
2023-01-06T09:01:35.524Z,89.86
2023-01-06T09:04:04.250Z,89.98
2023-01-06T09:06:31.425Z,89.79
2023-01-06T09:09:01.338Z,89.75
2023-01-06T09:11:30.796Z,89.38
2023-01-06T09:13:57.713Z,89.57
2023-01-06T09:16:25.850Z,89.51
2023-01-06T09:18:55.553Z,89.58
2023-01-06T09:21:23.095Z,89.39
2023-01-06T09:23:50.195Z,89.24
2023-01-06T09:26:19.016Z,89.32
2023-01-06T09:28:46.129Z,89.17
2023-01-06T09:31:13.182Z,88.90
2023-01-06T09:33:40.116Z,88.71
2023-01-06T09:36:07.424Z,88.71
2023-01-06T09:38:34.270Z,88.43
2023-01-06T09:41:19.757Z,88.34
2023-01-06T09:43:50.788Z,88.16
2023-01-06T09:46:20.077Z,87.83
2023-01-06T09:48:55.352Z,87.75
2023-01-06T09:51:23.819Z,87.50
2023-01-06T09:53:58.753Z,87.40
2023-01-06T09:56:26.533Z,86.92
2023-01-06T09:58:56.140Z,86.81
2023-01-06T10:01:27.951Z,86.57
2023-01-06T10:03:57.661Z,86.51
2023-01-06T10:06:35.622Z,86.21
2023-01-06T10:09:15.836Z,86.24
2023-01-06T10:11:57.960Z,85.80
2023-01-06T10:14:39.308Z,85.18
2023-01-06T10:17:26.277Z,84.93
2023-01-06T10:20:11.624Z,84.98
2023-01-06T10:22:50.379Z,84.64
2023-01-06T10:25:35.655Z,84.30
2023-01-06T10:28:10.597Z,83.71
2023-01-06T10:30:44.462Z,83.29
2023-01-06T10:33:34.809Z,82.80
2023-01-06T10:36:01.980Z,82.20
2023-01-06T10:38:40.189Z,82.30
2023-01-06T10:41:15.879Z,82.48
2023-01-06T10:43:49.369Z,82.30
2023-01-06T10:46:17.444Z,82.29
2023-01-06T10:48:46.917Z,81.86
2023-01-06T10:51:32.195Z,81.67
2023-01-06T10:54:00.810Z,81.13
2023-01-06T10:56:29.167Z,81.23
2023-01-06T10:58:59.611Z,80.95
2023-01-06T11:01:27.604Z,80.79
2023-01-06T11:04:14.754Z,80.77
2023-01-06T11:07:04.314Z,80.79
2023-01-06T11:09:31.262Z,80.63
2023-01-06T11:12:02.581Z,80.47
2023-01-06T11:14:31.314Z,80.45
2023-01-06T11:17:15.372Z,80.16
2023-01-06T11:19:44.324Z,79.95
2023-01-06T11:25:02.501Z,79.07
2023-01-06T11:27:29.261Z,78.24
2023-01-06T11:29:57.170Z,76.88
2023-01-06T11:32:27.168Z,72.91
2023-01-06T11:34:59.064Z,71.15
2023-01-06T11:37:34.976Z,68.70
2023-01-06T11:40:16.572Z,68.94
2023-01-06T11:42:46.215Z,68.52
2023-01-06T11:45:31.517Z,68.21
2023-01-06T11:48:01.064Z,67.39
2023-01-06T11:50:28.387Z,64.30
2023-01-06T11:52:59.295Z,61.80
2023-01-06T11:55:27.689Z,59.95
2023-01-06T11:58:06.306Z,58.41
2023-01-06T12:00:39.422Z,56.41
2023-01-06T12:03:36.711Z,55.69
2023-01-06T12:06:22.184Z,55.30
2023-01-06T12:09:10.029Z,54.72
2023-01-06T12:11:47.755Z,53.73
2023-01-06T12:14:28.375Z,52.97
2023-01-06T12:16:58.583Z,52.55
2023-01-06T12:19:33.519Z,51.92
2023-01-06T12:22:01.287Z,51.42
2023-01-06T12:24:29.772Z,51.02
2023-01-06T12:26:57.443Z,50.18
2023-01-06T12:29:28.249Z,49.55
2023-01-06T12:32:10.966Z,49.60
2023-01-06T12:34:42.009Z,49.34
2023-01-06T12:37:21.383Z,49.22
2023-01-06T12:40:07.627Z,49.28
2023-01-06T12:42:43.757Z,49.56
2023-01-06T12:45:31.596Z,50.31
2023-01-06T12:47:59.461Z,49.91
2023-01-06T12:50:37.806Z,49.20
2023-01-06T12:53:19.962Z,49.08
2023-01-06T12:56:08.323Z,49.15
2023-01-06T12:58:56.497Z,48.76
2023-01-06T13:01:43.172Z,47.32
2023-01-06T13:04:29.213Z,46.94
2023-01-06T13:06:57.271Z,46.81
2023-01-06T13:09:42.731Z,46.80
2023-01-06T13:12:09.617Z,46.93
2023-01-06T13:15:05.379Z,46.82
2023-01-06T13:17:42.145Z,46.53
2023-01-06T13:20:17.297Z,46.74
2023-01-06T13:22:44.566Z,47.17
2023-01-06T13:25:24.214Z,47.54
2023-01-06T13:27:53.823Z,48.07
2023-01-06T13:30:40.979Z,48.05
2023-01-06T13:33:14.097Z,47.92
2023-01-06T13:35:43.888Z,47.78
2023-01-06T13:38:18.352Z,47.85
2023-01-06T13:40:46.764Z,48.06
2023-01-06T13:43:13.610Z,48.26
2023-01-06T13:45:42.763Z,48.02
2023-01-06T13:48:11.417Z,48.10
2023-01-06T13:50:38.605Z,48.28
2023-01-06T13:53:06.509Z,48.49
2023-01-06T13:55:39.192Z,48.34
2023-01-06T13:58:29.199Z,48.11
2023-01-06T14:01:12.988Z,47.94
2023-01-06T14:03:40.833Z,47.82
2023-01-06T14:06:10.989Z,47.95
2023-01-06T14:08:39.695Z,48.04
2023-01-06T14:11:26.965Z,47.97
2023-01-06T14:13:58.595Z,48.48
2023-01-06T14:16:46.146Z,49.30
2023-01-06T14:19:17.880Z,49.65
2023-01-06T14:21:45.544Z,50.12
2023-01-06T14:24:18.261Z,50.34
2023-01-06T14:26:45.217Z,50.49
2023-01-06T14:29:30.956Z,50.92
2023-01-06T14:31:57.860Z,51.44
2023-01-06T14:34:25.109Z,52.38
2023-01-06T14:36:52.339Z,52.54
2023-01-06T14:39:21.261Z,52.91
2023-01-06T14:41:57.679Z,52.79
2023-01-06T14:44:37.367Z,53.09
2023-01-06T14:47:11.768Z,53.37
2023-01-06T14:49:44.811Z,54.60
2023-01-06T14:52:18.349Z,56.32
2023-01-06T14:54:47.079Z,57.84
2023-01-06T14:57:32.265Z,59.15
2023-01-06T15:00:05.207Z,60.11
2023-01-06T15:02:32.799Z,60.84
2023-01-06T15:04:59.798Z,61.26
2023-01-06T15:07:26.873Z,61.86
2023-01-06T15:10:10.787Z,62.19
2023-01-06T15:12:38.767Z,62.98
2023-01-06T15:15:29.407Z,63.63
2023-01-06T15:17:57.215Z,63.82
2023-01-06T15:20:32.553Z,63.95
2023-01-06T15:23:00.595Z,64.34
2023-01-06T15:25:28.323Z,64.47
2023-01-06T15:27:57.350Z,65.07
2023-01-06T15:30:28.249Z,65.07
2023-01-06T15:32:56.218Z,65.55
2023-01-06T15:35:24.889Z,66.05
2023-01-06T15:38:06.896Z,66.35
2023-01-06T15:40:33.963Z,66.57
2023-01-06T15:43:01.572Z,66.94
2023-01-06T15:45:32.465Z,67.03
2023-01-06T15:48:01.444Z,67.22
2023-01-06T15:50:29.936Z,67.69
2023-01-06T15:53:04.155Z,68.04
2023-01-06T15:55:35.519Z,68.14
2023-01-06T15:58:05.691Z,68.66
2023-01-06T16:00:35.909Z,68.82
2023-01-06T16:03:04.008Z,69.08
2023-01-06T16:05:35.883Z,69.38
2023-01-06T16:08:05.056Z,69.64
2023-01-06T16:10:38.598Z,69.71
2023-01-06T16:13:15.464Z,69.75
2023-01-06T16:15:45.654Z,70.21
2023-01-06T16:18:13.872Z,70.43
2023-01-06T16:20:40.753Z,70.56
2023-01-06T16:23:17.297Z,70.81
2023-01-06T16:25:45.375Z,71.03
2023-01-06T16:28:19.297Z,71.25
2023-01-06T16:31:08.514Z,71.45
2023-01-06T16:33:39.848Z,71.73
2023-01-06T16:36:16.787Z,71.62
2023-01-06T16:38:44.569Z,72.16
2023-01-06T16:41:16.515Z,72.45
2023-01-06T16:43:44.092Z,72.43
2023-01-06T16:46:20.071Z,72.78
2023-01-06T16:48:47.936Z,72.93
2023-01-06T16:51:18.764Z,72.96
2023-01-06T16:53:46.448Z,72.86
2023-01-06T16:56:18.862Z,73.20
2023-01-06T16:58:48.737Z,73.12
2023-01-06T17:01:19.593Z,73.45
2023-01-06T17:03:51.975Z,73.35
2023-01-06T17:06:22.879Z,73.64
2023-01-06T17:08:50.922Z,73.77
2023-01-06T17:11:22.749Z,73.93
2023-01-06T17:14:10.360Z,74.05
2023-01-06T17:16:40.013Z,74.17
2023-01-06T17:19:22.128Z,74.26
2023-01-06T17:21:50.089Z,74.39
2023-01-06T17:24:25.099Z,74.71
2023-01-06T17:27:02.483Z,74.55
2023-01-06T17:29:30.811Z,74.73
2023-01-06T17:32:00.637Z,74.76
2023-01-06T17:34:33.788Z,74.90
2023-01-06T17:37:10.951Z,75.12
2023-01-06T17:39:41.259Z,75.04
2023-01-06T17:42:24.005Z,75.11
2023-01-06T17:44:55.561Z,75.24
2023-01-06T17:47:22.351Z,75.42
2023-01-06T17:49:56.756Z,75.76
2023-01-06T17:52:25.691Z,75.89
2023-01-06T17:55:12.994Z,75.96
2023-01-06T17:57:41.589Z,76.68
2023-01-06T18:00:24.896Z,76.74
2023-01-06T18:03:10.427Z,76.73
2023-01-06T18:05:52.583Z,76.95
2023-01-06T18:08:19.791Z,77.20
2023-01-06T18:10:57.757Z,77.27
2023-01-06T18:13:28.953Z,77.47
2023-01-06T18:15:59.663Z,77.94
2023-01-06T18:18:39.903Z,78.06
2023-01-06T18:21:16.119Z,78.03
2023-01-06T18:23:44.770Z,78.28
2023-01-06T18:26:26.595Z,78.60
2023-01-06T18:29:01.927Z,78.79
2023-01-06T18:31:33.573Z,78.63
2023-01-06T18:34:19.294Z,78.86
2023-01-06T18:36:47.831Z,79.24
2023-01-06T18:39:17.748Z,79.76
2023-01-06T18:41:44.514Z,80.20
2023-01-06T18:44:20.744Z,80.35
2023-01-06T18:46:56.143Z,80.66
2023-01-06T18:49:29.601Z,80.70
2023-01-06T18:51:56.783Z,80.62
2023-01-06T18:54:25.869Z,80.70
2023-01-06T18:56:52.705Z,80.72
2023-01-06T18:59:21.578Z,80.77
2023-01-06T19:01:49.796Z,81.12
2023-01-06T19:04:30.288Z,81.02
2023-01-06T19:07:09.911Z,81.32
2023-01-06T19:09:43.745Z,81.52
2023-01-06T19:12:19.953Z,81.40
2023-01-06T19:14:48.404Z,81.77
2023-01-06T19:17:20.922Z,81.77
2023-01-06T19:19:47.889Z,82.05
2023-01-06T19:22:15.113Z,82.02
2023-01-06T19:24:45.088Z,82.05
2023-01-06T19:27:29.969Z,82.05
2023-01-06T19:30:01.924Z,82.22
2023-01-06T19:32:34.859Z,82.19
2023-01-06T19:35:01.743Z,82.12
2023-01-06T19:37:28.459Z,82.04
2023-01-06T19:39:58.055Z,82.13
2023-01-06T19:42:30.241Z,82.29
2023-01-06T19:44:58.532Z,82.41
2023-01-06T19:47:27.809Z,82.25
2023-01-06T19:49:57.891Z,82.40
2023-01-06T19:52:29.216Z,82.26
2023-01-06T19:54:58.984Z,82.52
2023-01-06T19:57:38.873Z,82.46
2023-01-06T20:00:18.176Z,82.54
2023-01-06T20:02:46.450Z,82.55
2023-01-06T20:05:13.213Z,82.63
2023-01-06T20:07:39.977Z,82.86
2023-01-06T20:10:07.029Z,82.83
2023-01-06T20:12:33.740Z,83.25
2023-01-06T20:15:00.394Z,83.26
2023-01-06T20:17:27.134Z,83.45
2023-01-06T20:19:53.815Z,83.29
2023-01-06T20:22:22.258Z,83.51
2023-01-06T20:24:49.011Z,83.41
2023-01-06T20:27:16.341Z,83.58
2023-01-06T20:29:43.080Z,83.67
2023-01-06T20:32:09.851Z,83.60
2023-01-06T20:34:37.186Z,83.66
2023-01-06T20:37:03.980Z,83.78
2023-01-06T20:39:30.744Z,83.89
2023-01-06T20:41:57.727Z,83.87
2023-01-06T20:44:24.423Z,83.99
2023-01-06T20:46:51.179Z,84.18
2023-01-06T20:49:20.535Z,83.95
2023-01-06T20:51:47.312Z,84.19
2023-01-06T20:54:14.103Z,84.18
2023-01-06T20:56:40.810Z,84.20
2023-01-06T20:59:07.472Z,84.24
2023-01-06T21:01:34.452Z,84.20
2023-01-06T21:04:01.270Z,84.22
2023-01-06T21:06:28.039Z,84.43
2023-01-06T21:08:54.775Z,84.63
2023-01-06T21:11:21.572Z,84.40
2023-01-06T21:13:48.224Z,84.43
2023-01-06T21:16:15.020Z,84.30
2023-01-06T21:18:41.710Z,84.52
2023-01-06T21:21:08.549Z,84.40
2023-01-06T21:23:35.250Z,84.46
2023-01-06T21:26:02.008Z,84.30
2023-01-06T21:28:28.683Z,84.34
2023-01-06T21:30:55.584Z,84.34
2023-01-06T21:33:22.397Z,84.36
2023-01-06T21:35:49.274Z,84.36
2023-01-06T21:38:16.378Z,84.39
2023-01-06T21:40:43.196Z,84.21
2023-01-06T21:43:10.134Z,84.52
2023-01-06T21:45:41.177Z,84.48
2023-01-06T21:48:08.789Z,84.38
2023-01-06T21:50:38.199Z,84.29
2023-01-06T21:53:05.569Z,84.35
2023-01-06T21:55:32.286Z,84.36
2023-01-06T21:57:59.068Z,84.24
2023-01-06T22:00:25.836Z,84.05
2023-01-06T22:02:53.537Z,84.27
2023-01-06T22:05:20.316Z,84.19
2023-01-06T22:07:49.035Z,84.58
2023-01-06T22:10:17.317Z,84.67
2023-01-06T22:12:45.585Z,84.62
2023-01-06T22:15:12.849Z,84.60
2023-01-06T22:17:39.807Z,84.50
2023-01-06T22:20:07.152Z,84.65
2023-01-06T22:22:34.538Z,84.62
2023-01-06T22:25:02.005Z,84.60
2023-01-06T22:27:28.684Z,84.54
2023-01-06T22:29:55.461Z,84.57
2023-01-06T22:32:22.234Z,84.63
2023-01-06T22:34:48.975Z,84.52
2023-01-06T22:37:15.793Z,84.47
2023-01-06T22:39:44.114Z,84.32
2023-01-06T22:42:10.905Z,84.34
2023-01-06T22:44:37.574Z,84.43
2023-01-06T22:47:04.454Z,84.37
2023-01-06T22:49:31.167Z,84.56
2023-01-06T22:51:57.914Z,84.62
2023-01-06T22:54:24.651Z,84.54
2023-01-06T22:56:51.401Z,84.67
2023-01-06T22:59:18.191Z,84.45
2023-01-06T23:01:45.678Z,84.71
2023-01-06T23:04:13.791Z,84.59
2023-01-06T23:06:40.718Z,84.67
2023-01-06T23:09:07.487Z,84.60
2023-01-06T23:11:41.473Z,84.94
2023-01-06T23:14:08.998Z,84.69
2023-01-06T23:16:36.612Z,84.70
2023-01-06T23:19:03.374Z,84.48
2023-01-06T23:21:30.559Z,84.80
2023-01-06T23:23:57.393Z,84.71
2023-01-06T23:26:34.018Z,84.78
2023-01-06T23:29:01.006Z,84.54
2023-01-06T23:31:29.007Z,84.83
2023-01-06T23:33:57.118Z,84.57
2023-01-06T23:36:25.751Z,84.67
2023-01-06T23:38:52.838Z,84.57
2023-01-06T23:41:20.483Z,84.36
2023-01-06T23:43:47.854Z,84.65
2023-01-06T23:46:19.416Z,84.44
2023-01-06T23:48:46.383Z,84.56
2023-01-06T23:51:13.461Z,84.57
2023-01-06T23:53:40.743Z,84.33
2023-01-06T23:56:11.812Z,84.30
2023-01-06T23:58:39.470Z,84.53
